createdAt,value
2023-03-03T00:00:46.745Z,100.00
2023-03-03T00:03:17.504Z,100.00
2023-03-03T00:05:43.994Z,100.00
2023-03-03T00:08:10.644Z,100.00
2023-03-03T00:10:38.238Z,100.00
2023-03-03T00:13:12.773Z,100.00
2023-03-03T00:15:39.307Z,100.00
2023-03-03T00:18:18.868Z,100.00
2023-03-03T00:20:52.246Z,100.00
2023-03-03T00:23:38.771Z,100.00
2023-03-03T00:26:21.337Z,100.00
2023-03-03T00:28:49.981Z,100.00
2023-03-03T00:31:25.622Z,100.00
2023-03-03T00:33:54.887Z,100.00
2023-03-03T00:36:28.722Z,100.00
2023-03-03T00:38:57.897Z,100.00
2023-03-03T00:41:27.455Z,100.00
2023-03-03T00:43:54.494Z,100.00
2023-03-03T00:46:23.467Z,100.00
2023-03-03T00:48:51.277Z,100.00
2023-03-03T00:51:30.395Z,100.00
2023-03-03T00:53:58.210Z,100.00
2023-03-03T00:56:24.995Z,100.00
2023-03-03T00:58:51.814Z,100.00
2023-03-03T01:01:20.847Z,100.00
2023-03-03T01:03:51.241Z,100.00
2023-03-03T01:06:17.783Z,100.00
2023-03-03T01:08:44.399Z,100.00
2023-03-03T01:11:17.449Z,100.00
2023-03-03T01:13:47.965Z,100.00
2023-03-03T01:16:14.536Z,100.00
2023-03-03T01:18:42.052Z,100.00
2023-03-03T01:21:09.360Z,100.00
2023-03-03T01:23:35.888Z,100.00
2023-03-03T01:26:02.632Z,100.00
2023-03-03T01:28:29.136Z,100.00
2023-03-03T01:31:00.650Z,100.00
2023-03-03T01:33:27.259Z,100.00
2023-03-03T01:35:54.425Z,100.00
2023-03-03T01:38:21.365Z,100.00
2023-03-03T01:40:59.264Z,100.00
2023-03-03T01:43:31.534Z,100.00
2023-03-03T01:45:57.929Z,100.00
2023-03-03T01:48:37.954Z,100.00
2023-03-03T01:51:18.248Z,100.00
2023-03-03T01:53:49.922Z,100.00
2023-03-03T01:56:16.398Z,100.00
2023-03-03T01:58:46.733Z,100.00
2023-03-03T02:01:21.006Z,100.00
2023-03-03T02:03:48.400Z,100.00
2023-03-03T02:06:19.564Z,100.00
2023-03-03T02:08:59.824Z,100.00
2023-03-03T02:11:29.605Z,100.00
2023-03-03T02:13:56.097Z,100.00
2023-03-03T02:16:23.039Z,100.00
2023-03-03T02:18:49.855Z,100.00
2023-03-03T02:21:20.718Z,100.00
2023-03-03T02:23:58.493Z,100.00
2023-03-03T02:26:31.200Z,100.00
2023-03-03T02:29:03.128Z,100.00
2023-03-03T02:31:31.588Z,100.00
2023-03-03T02:33:59.185Z,100.00
2023-03-03T02:36:31.753Z,100.00
2023-03-03T02:39:07.161Z,100.00
2023-03-03T02:41:53.224Z,100.00
2023-03-03T02:44:23.072Z,100.00
2023-03-03T02:46:50.902Z,100.00
2023-03-03T02:49:20.845Z,100.00
2023-03-03T02:51:47.641Z,100.00
2023-03-03T02:54:15.734Z,100.00
2023-03-03T02:56:42.453Z,100.00
2023-03-03T02:59:09.287Z,100.00
2023-03-03T03:01:42.122Z,100.00
2023-03-03T03:04:24.542Z,100.00
2023-03-03T03:06:52.254Z,100.00
2023-03-03T03:09:21.179Z,100.00
2023-03-03T03:11:49.846Z,100.00
2023-03-03T03:14:20.156Z,100.00
2023-03-03T03:16:46.744Z,100.00
2023-03-03T03:19:13.293Z,100.00
2023-03-03T03:21:40.572Z,100.00
2023-03-03T03:24:08.246Z,100.00
2023-03-03T03:26:36.946Z,100.00
2023-03-03T03:29:03.608Z,100.00
2023-03-03T03:31:30.930Z,100.00
2023-03-03T03:33:57.401Z,100.00
2023-03-03T03:36:24.502Z,100.00
2023-03-03T03:38:52.384Z,100.00
2023-03-03T03:41:18.835Z,100.00
2023-03-03T03:43:45.717Z,100.00
2023-03-03T03:46:13.026Z,100.00
2023-03-03T03:48:39.559Z,100.00
2023-03-03T03:51:09.825Z,100.00
2023-03-03T03:53:36.337Z,100.00
2023-03-03T03:56:02.825Z,100.00
2023-03-03T03:58:30.452Z,100.00
2023-03-03T04:01:06.636Z,100.00
2023-03-03T04:03:36.105Z,100.00
2023-03-03T04:06:06.075Z,100.00
2023-03-03T04:08:33.953Z,100.00
2023-03-03T04:11:00.866Z,100.00
2023-03-03T04:13:28.885Z,100.00
2023-03-03T04:15:55.731Z,100.00
2023-03-03T04:18:22.396Z,100.00
2023-03-03T04:20:49.976Z,100.00
2023-03-03T04:23:16.584Z,100.00
2023-03-03T04:25:43.079Z,100.00
2023-03-03T04:28:15.446Z,100.00
2023-03-03T04:30:42.662Z,100.00
2023-03-03T04:33:09.650Z,100.00
2023-03-03T04:35:38.639Z,100.00
2023-03-03T04:38:05.704Z,100.00
2023-03-03T04:40:33.227Z,100.00
2023-03-03T04:43:01.201Z,100.00
2023-03-03T04:45:28.026Z,100.00
2023-03-03T04:47:54.637Z,100.00
2023-03-03T04:50:22.206Z,100.00
2023-03-03T04:52:48.675Z,100.00
2023-03-03T04:55:16.625Z,100.00
2023-03-03T04:57:45.348Z,100.00
2023-03-03T05:00:13.505Z,100.00
2023-03-03T05:02:41.285Z,100.00
2023-03-03T05:05:13.654Z,100.00
2023-03-03T05:07:40.746Z,100.00
2023-03-03T05:10:08.173Z,100.00
2023-03-03T05:12:34.596Z,100.00
2023-03-03T05:15:01.379Z,100.00
2023-03-03T05:17:27.813Z,100.00
2023-03-03T05:19:54.210Z,100.00
2023-03-03T05:22:20.663Z,100.00
2023-03-03T05:24:49.268Z,100.00
2023-03-03T05:27:16.420Z,100.00
2023-03-03T05:29:42.921Z,100.00
2023-03-03T05:32:09.402Z,100.00
2023-03-03T05:34:36.076Z,100.00
2023-03-03T05:37:03.711Z,100.00
2023-03-03T05:39:30.156Z,100.00
2023-03-03T05:41:56.855Z,100.00
2023-03-03T05:44:23.310Z,100.00
2023-03-03T05:46:49.824Z,100.00
2023-03-03T05:49:16.429Z,100.00
2023-03-03T05:51:42.999Z,100.00
2023-03-03T05:54:09.473Z,100.00
2023-03-03T05:56:35.987Z,100.00
2023-03-03T05:59:02.611Z,100.00
2023-03-03T06:01:29.329Z,100.00
2023-03-03T06:03:55.833Z,100.00
2023-03-03T06:06:22.320Z,100.00
2023-03-03T06:08:48.801Z,100.00
2023-03-03T06:11:16.666Z,100.00
2023-03-03T06:13:43.203Z,100.00
2023-03-03T06:16:10.005Z,100.00
2023-03-03T06:18:37.018Z,100.00
2023-03-03T06:21:03.577Z,100.00
2023-03-03T06:23:30.029Z,100.00
2023-03-03T06:25:56.640Z,100.00
2023-03-03T06:28:24.932Z,100.00
2023-03-03T06:30:55.759Z,100.00
2023-03-03T06:33:22.973Z,100.00
2023-03-03T06:35:51.616Z,100.00
2023-03-03T06:38:18.119Z,100.00
2023-03-03T06:40:45.357Z,100.00
2023-03-03T06:43:12.320Z,100.00
2023-03-03T06:45:38.934Z,100.00
2023-03-03T06:48:05.599Z,100.00
2023-03-03T06:50:32.130Z,100.00
2023-03-03T06:53:10.554Z,100.00
2023-03-03T06:55:37.340Z,100.00
2023-03-03T06:58:16.165Z,100.00
2023-03-03T07:00:45.109Z,100.00
2023-03-03T07:03:15.991Z,100.00
2023-03-03T07:05:43.402Z,99.99
2023-03-03T07:08:17.530Z,100.00
2023-03-03T07:10:44.896Z,100.00
2023-03-03T07:13:26.887Z,100.00
2023-03-03T07:15:54.848Z,98.73
2023-03-03T07:18:24.702Z,99.06
2023-03-03T07:20:51.390Z,98.64
2023-03-03T07:23:42.349Z,97.65
2023-03-03T07:26:12.593Z,96.69
2023-03-03T07:28:42.387Z,98.40
2023-03-03T07:31:39.231Z,99.49
2023-03-03T07:34:23.741Z,96.82
2023-03-03T07:36:53.785Z,97.26
2023-03-03T07:39:40.354Z,93.64
2023-03-03T07:42:27.711Z,92.63
2023-03-03T07:45:22.047Z,88.88
2023-03-03T07:47:48.492Z,88.09
2023-03-03T07:50:24.156Z,87.80
2023-03-03T07:53:01.014Z,86.47
2023-03-03T07:55:35.548Z,83.96
2023-03-03T07:58:10.920Z,82.39
2023-03-03T08:00:40.497Z,81.33
2023-03-03T08:03:17.828Z,81.72
2023-03-03T08:05:47.939Z,80.55
2023-03-03T08:08:42.519Z,78.08
2023-03-03T08:11:09.615Z,77.27
2023-03-03T08:13:38.678Z,76.26
2023-03-03T08:16:11.126Z,77.58
2023-03-03T08:18:42.461Z,76.17
2023-03-03T08:21:15.068Z,76.67
2023-03-03T08:23:41.599Z,75.95
2023-03-03T08:26:08.707Z,75.84
2023-03-03T08:28:35.341Z,75.00
2023-03-03T08:31:16.401Z,75.63
2023-03-03T08:33:45.483Z,75.98
2023-03-03T08:36:12.703Z,76.20
2023-03-03T08:38:39.727Z,76.14
2023-03-03T08:41:06.503Z,75.81
2023-03-03T08:43:33.074Z,75.78
2023-03-03T08:46:01.818Z,75.90
2023-03-03T08:48:29.488Z,76.88
2023-03-03T08:50:56.107Z,76.47
2023-03-03T08:53:23.650Z,76.90
2023-03-03T08:55:50.279Z,77.19
2023-03-03T08:58:18.280Z,77.32
2023-03-03T09:00:48.117Z,77.62
2023-03-03T09:03:15.738Z,78.03
2023-03-03T09:05:42.275Z,78.30
2023-03-03T09:08:10.643Z,77.22
2023-03-03T09:10:37.583Z,77.08
2023-03-03T09:13:13.757Z,77.04
2023-03-03T09:15:40.459Z,75.61
2023-03-03T09:18:20.335Z,77.02
2023-03-03T09:20:54.446Z,75.95
2023-03-03T09:23:23.907Z,76.34
2023-03-03T09:25:51.715Z,75.85
2023-03-03T09:28:32.733Z,75.54
2023-03-03T09:31:01.528Z,74.43
2023-03-03T09:33:40.365Z,74.30
2023-03-03T09:36:37.973Z,73.13
2023-03-03T09:39:25.768Z,73.38
2023-03-03T09:42:26.107Z,73.71
2023-03-03T09:45:20.354Z,74.35
2023-03-03T09:47:55.952Z,73.10
2023-03-03T09:50:46.789Z,72.94
2023-03-03T09:53:38.058Z,72.61
2023-03-03T09:56:30.123Z,71.86
2023-03-03T09:59:01.950Z,71.23
2023-03-03T10:01:53.405Z,71.73
2023-03-03T10:04:34.954Z,70.87
2023-03-03T10:07:22.739Z,70.62
2023-03-03T10:09:58.380Z,70.96
2023-03-03T10:12:45.410Z,70.00
2023-03-03T10:15:26.559Z,67.12
2023-03-03T10:18:16.880Z,65.54
2023-03-03T10:20:52.400Z,63.94
2023-03-03T10:23:22.613Z,64.34
2023-03-03T10:26:08.447Z,63.85
2023-03-03T10:28:50.418Z,62.44
2023-03-03T10:31:42.598Z,63.07
2023-03-03T10:34:27.502Z,62.62
2023-03-03T10:36:56.576Z,64.53
2023-03-03T10:39:58.370Z,64.81
2023-03-03T10:42:36.598Z,64.37
2023-03-03T10:45:36.019Z,64.98
2023-03-03T10:48:24.022Z,65.19
2023-03-03T10:50:58.661Z,65.06
2023-03-03T10:53:46.006Z,64.38
2023-03-03T10:56:35.404Z,63.60
2023-03-03T10:59:31.305Z,63.05
2023-03-03T11:02:43.137Z,62.20
2023-03-03T11:05:18.315Z,59.43
2023-03-03T11:07:51.741Z,59.79
2023-03-03T11:10:37.495Z,60.76
2023-03-03T11:13:19.136Z,61.07
2023-03-03T11:16:10.030Z,60.10
2023-03-03T11:19:02.391Z,60.52
2023-03-03T11:21:47.301Z,60.77
2023-03-03T11:24:26.779Z,59.99
2023-03-03T11:26:53.149Z,60.27
2023-03-03T11:29:47.851Z,59.54
2023-03-03T11:32:24.065Z,58.82
2023-03-03T11:34:56.239Z,59.16
2023-03-03T11:37:39.632Z,58.27
2023-03-03T11:40:18.118Z,57.98
2023-03-03T11:43:18.593Z,57.78
2023-03-03T11:45:58.439Z,57.92
2023-03-03T11:48:33.703Z,58.80
2023-03-03T11:51:07.651Z,57.90
2023-03-03T11:53:43.132Z,57.08
2023-03-03T11:56:27.670Z,56.29
2023-03-03T11:58:58.172Z,56.55
2023-03-03T12:01:30.422Z,56.59
2023-03-03T12:04:06.347Z,57.93
2023-03-03T12:06:47.907Z,56.66
2023-03-03T12:09:32.005Z,55.43
2023-03-03T12:12:14.688Z,56.17
2023-03-03T12:15:10.556Z,55.61
2023-03-03T12:18:05.922Z,56.96
2023-03-03T12:20:59.966Z,55.96
2023-03-03T12:23:51.303Z,55.87
2023-03-03T12:26:27.089Z,55.25
2023-03-03T12:28:59.494Z,54.81
2023-03-03T12:31:44.384Z,55.70
2023-03-03T12:34:26.967Z,55.99
2023-03-03T12:37:05.151Z,55.28
2023-03-03T12:39:56.225Z,54.98
2023-03-03T12:42:41.706Z,55.31
2023-03-03T12:45:30.063Z,55.52
2023-03-03T12:48:05.463Z,56.19
2023-03-03T12:51:21.322Z,56.83
2023-03-03T12:54:13.608Z,54.89
2023-03-03T12:56:51.114Z,54.84
2023-03-03T12:59:29.541Z,54.57
2023-03-03T13:02:29.910Z,54.26
2023-03-03T13:05:27.297Z,52.95
2023-03-03T13:08:16.383Z,53.72
2023-03-03T13:10:50.363Z,52.43
2023-03-03T13:13:26.940Z,52.94
2023-03-03T13:16:17.119Z,51.56
2023-03-03T13:19:08.758Z,52.07
2023-03-03T13:21:41.992Z,51.07
2023-03-03T13:24:43.654Z,50.92
2023-03-03T13:27:16.892Z,50.76
2023-03-03T13:29:59.316Z,51.39
2023-03-03T13:32:40.395Z,51.84
2023-03-03T13:35:30.013Z,51.22
2023-03-03T13:37:58.120Z,51.18
2023-03-03T13:41:09.414Z,52.36
2023-03-03T13:43:47.432Z,52.21
2023-03-03T13:46:51.485Z,51.47
2023-03-03T13:49:20.836Z,51.46
2023-03-03T13:52:02.797Z,51.97
2023-03-03T13:54:53.098Z,52.00
2023-03-03T13:57:31.440Z,52.22
2023-03-03T14:00:24.723Z,51.39
2023-03-03T14:03:29.698Z,51.49
2023-03-03T14:06:14.594Z,49.50
2023-03-03T14:08:50.441Z,47.17
2023-03-03T14:11:25.191Z,47.56
2023-03-03T14:14:28.718Z,44.26
2023-03-03T14:17:11.661Z,43.22
2023-03-03T14:19:48.211Z,43.24
2023-03-03T14:22:37.975Z,42.11
2023-03-03T14:25:22.801Z,42.52
2023-03-03T14:27:49.180Z,41.75
2023-03-03T14:30:21.846Z,41.82
2023-03-03T14:33:17.628Z,42.13
2023-03-03T14:35:57.534Z,43.66
2023-03-03T14:38:36.011Z,44.06
2023-03-03T14:41:13.810Z,43.26
2023-03-03T14:43:42.703Z,42.40
2023-03-03T14:46:24.865Z,42.42
2023-03-03T14:48:53.526Z,42.41
2023-03-03T14:51:27.147Z,43.53
2023-03-03T14:53:53.996Z,42.41
2023-03-03T14:56:30.278Z,43.58
2023-03-03T14:59:18.771Z,46.42
2023-03-03T15:01:45.763Z,43.42
2023-03-03T15:04:25.729Z,42.81
2023-03-03T15:06:54.867Z,42.51
2023-03-03T15:09:36.784Z,41.97
2023-03-03T15:12:18.979Z,41.79
2023-03-03T15:14:48.776Z,40.92
2023-03-03T15:17:34.178Z,43.33
2023-03-03T15:20:27.145Z,42.58
2023-03-03T15:23:05.720Z,42.75
2023-03-03T15:25:58.763Z,42.18
2023-03-03T15:28:55.703Z,42.58
2023-03-03T15:31:45.635Z,42.20
2023-03-03T15:34:38.203Z,41.77
2023-03-03T15:37:12.779Z,42.17
2023-03-03T15:39:44.905Z,42.35
2023-03-03T15:42:13.567Z,42.44
2023-03-03T15:44:58.833Z,44.41
2023-03-03T15:47:50.017Z,44.38
2023-03-03T15:50:35.830Z,43.32
2023-03-03T15:53:26.970Z,43.53
2023-03-03T15:56:16.264Z,43.69
2023-03-03T15:59:08.138Z,45.24
2023-03-03T16:01:35.935Z,47.55
2023-03-03T16:04:10.343Z,48.49
2023-03-03T16:07:16.664Z,48.82
2023-03-03T16:10:12.159Z,50.78
2023-03-03T16:12:41.640Z,52.04
2023-03-03T16:15:36.302Z,51.89
2023-03-03T16:18:24.577Z,51.65
2023-03-03T16:21:01.775Z,51.83
2023-03-03T16:23:47.194Z,52.04
2023-03-03T16:26:25.550Z,52.55
2023-03-03T16:29:07.595Z,53.29
2023-03-03T16:31:45.726Z,53.50
2023-03-03T16:34:33.601Z,53.85
2023-03-03T16:37:22.353Z,54.78
2023-03-03T16:40:01.829Z,55.89
2023-03-03T16:42:30.613Z,57.23
2023-03-03T16:45:06.614Z,58.50
2023-03-03T16:47:44.547Z,60.30
2023-03-03T16:50:15.629Z,61.31
2023-03-03T16:52:47.947Z,62.39
2023-03-03T16:55:28.094Z,65.62
2023-03-03T16:58:16.493Z,66.82
2023-03-03T17:00:50.558Z,68.24
2023-03-03T17:03:35.537Z,67.81
2023-03-03T17:06:15.556Z,68.82
2023-03-03T17:09:33.545Z,73.20
2023-03-03T17:12:18.680Z,74.87
2023-03-03T17:15:10.985Z,75.61
2023-03-03T17:17:47.148Z,76.99
2023-03-03T17:20:36.912Z,78.23
2023-03-03T17:23:20.518Z,79.12
2023-03-03T17:25:52.925Z,78.74
2023-03-03T17:28:51.680Z,78.90
2023-03-03T17:31:21.205Z,79.09
2023-03-03T17:34:03.492Z,80.66
2023-03-03T17:36:48.588Z,80.84
2023-03-03T17:39:24.158Z,80.98
2023-03-03T17:41:59.742Z,82.08
2023-03-03T17:44:46.399Z,80.69
2023-03-03T17:47:23.942Z,81.04
2023-03-03T17:49:56.344Z,81.83
2023-03-03T17:52:39.385Z,81.83
2023-03-03T17:55:32.545Z,82.97
2023-03-03T17:58:14.198Z,82.80
2023-03-03T18:01:07.148Z,84.01
2023-03-03T18:04:00.841Z,83.39
2023-03-03T18:06:55.357Z,84.77
2023-03-03T18:09:33.663Z,84.25
2023-03-03T18:12:31.228Z,84.01
2023-03-03T18:15:16.240Z,84.13
2023-03-03T18:18:22.285Z,83.54
2023-03-03T18:20:59.803Z,84.79
2023-03-03T18:23:41.970Z,84.95
2023-03-03T18:26:26.738Z,84.59
2023-03-03T18:29:05.710Z,84.70
2023-03-03T18:31:46.209Z,83.54
2023-03-03T18:34:18.763Z,85.79
2023-03-03T18:37:07.359Z,87.13
2023-03-03T18:39:45.669Z,87.32
2023-03-03T18:42:40.963Z,87.02
2023-03-03T18:45:30.318Z,86.43
2023-03-03T18:48:03.875Z,85.20
2023-03-03T18:50:34.564Z,85.00
2023-03-03T18:53:23.785Z,84.90
2023-03-03T18:55:58.616Z,87.47
2023-03-03T18:58:41.352Z,86.74
2023-03-03T19:01:10.917Z,86.73
2023-03-03T19:03:47.066Z,85.70
2023-03-03T19:06:32.904Z,87.18
2023-03-03T19:08:59.546Z,86.01
2023-03-03T19:11:44.900Z,88.23
2023-03-03T19:14:17.234Z,88.12
2023-03-03T19:16:44.696Z,87.07
2023-03-03T19:19:12.502Z,88.89
2023-03-03T19:21:40.732Z,90.08
2023-03-03T19:24:22.655Z,90.06
2023-03-03T19:27:02.258Z,91.05
2023-03-03T19:29:46.807Z,90.73
2023-03-03T19:32:44.375Z,91.94
2023-03-03T19:35:18.616Z,92.16
2023-03-03T19:38:18.472Z,91.34
2023-03-03T19:40:55.701Z,91.66
2023-03-03T19:43:44.920Z,90.07
2023-03-03T19:46:47.154Z,89.30
2023-03-03T19:49:27.760Z,89.44
2023-03-03T19:52:14.024Z,90.17
2023-03-03T19:54:59.039Z,91.63
2023-03-03T19:57:37.306Z,92.21
2023-03-03T20:00:19.434Z,92.87
2023-03-03T20:03:07.051Z,93.64
2023-03-03T20:05:52.417Z,92.28
2023-03-03T20:08:31.147Z,95.37
2023-03-03T20:11:35.896Z,93.75
2023-03-03T20:14:34.656Z,91.91
2023-03-03T20:17:32.212Z,93.97
2023-03-03T20:20:12.897Z,94.57
2023-03-03T20:23:01.984Z,94.84
2023-03-03T20:25:34.636Z,96.45
2023-03-03T20:28:39.068Z,96.14
2023-03-03T20:31:11.745Z,97.39
2023-03-03T20:33:45.432Z,97.41
2023-03-03T20:36:33.940Z,97.04
2023-03-03T20:39:14.767Z,96.24
2023-03-03T20:42:09.179Z,96.42
2023-03-03T20:44:58.783Z,94.94
2023-03-03T20:47:56.471Z,96.00
2023-03-03T20:50:37.556Z,94.98
2023-03-03T20:53:37.843Z,94.67
2023-03-03T20:56:24.262Z,97.13
2023-03-03T20:59:05.950Z,96.66
2023-03-03T21:01:41.675Z,96.22
2023-03-03T21:04:30.265Z,96.95
2023-03-03T21:06:58.008Z,96.90
2023-03-03T21:09:37.912Z,97.03
2023-03-03T21:12:28.871Z,96.52
2023-03-03T21:15:02.090Z,96.90
2023-03-03T21:17:30.900Z,97.44
2023-03-03T21:20:29.975Z,95.43
2023-03-03T21:22:58.383Z,95.13
2023-03-03T21:25:40.240Z,95.03
2023-03-03T21:28:24.089Z,96.05
2023-03-03T21:31:09.100Z,97.43
2023-03-03T21:33:44.640Z,96.32
2023-03-03T21:36:14.330Z,95.17
2023-03-03T21:38:41.501Z,94.18
2023-03-03T21:41:08.945Z,94.46
2023-03-03T21:43:41.566Z,94.19
2023-03-03T21:46:08.621Z,94.18
2023-03-03T21:48:35.197Z,94.70
2023-03-03T21:51:01.756Z,93.17
2023-03-03T21:53:29.641Z,93.95
2023-03-03T21:55:56.172Z,94.21
2023-03-03T21:58:22.698Z,94.39
2023-03-03T22:00:49.209Z,94.48
2023-03-03T22:03:16.802Z,94.67
2023-03-03T22:05:43.747Z,94.96
2023-03-03T22:08:10.215Z,95.28
2023-03-03T22:10:36.694Z,97.44
2023-03-03T22:13:03.469Z,97.21
2023-03-03T22:15:33.166Z,98.36
2023-03-03T22:18:00.426Z,98.73
2023-03-03T22:20:27.008Z,98.78
2023-03-03T22:22:53.541Z,98.24
2023-03-03T22:25:19.988Z,97.54
2023-03-03T22:27:46.532Z,97.73
2023-03-03T22:30:13.655Z,98.86
2023-03-03T22:32:40.197Z,98.97
2023-03-03T22:35:08.399Z,98.82
2023-03-03T22:37:34.924Z,97.69
2023-03-03T22:40:01.485Z,98.41
2023-03-03T22:42:28.113Z,98.49
2023-03-03T22:44:54.562Z,97.39
2023-03-03T22:47:21.015Z,97.71
2023-03-03T22:49:47.497Z,97.16
2023-03-03T22:52:13.993Z,96.30
2023-03-03T22:54:40.982Z,97.83
2023-03-03T22:57:07.455Z,98.31
2023-03-03T22:59:34.484Z,97.08
2023-03-03T23:02:01.000Z,96.51
2023-03-03T23:04:27.555Z,97.04
2023-03-03T23:06:54.164Z,96.44
2023-03-03T23:09:20.667Z,96.01
2023-03-03T23:11:47.140Z,97.10
2023-03-03T23:14:13.997Z,97.22
2023-03-03T23:16:40.503Z,98.59
2023-03-03T23:19:07.004Z,100.00
2023-03-03T23:21:33.769Z,100.00
2023-03-03T23:24:00.272Z,100.00
2023-03-03T23:26:26.755Z,100.00
2023-03-03T23:28:53.217Z,100.00
2023-03-03T23:31:19.716Z,100.00
2023-03-03T23:33:46.280Z,100.00
2023-03-03T23:36:12.901Z,100.00
2023-03-03T23:38:40.293Z,100.00
2023-03-03T23:41:08.397Z,100.00
2023-03-03T23:43:35.012Z,100.00
2023-03-03T23:46:01.470Z,100.00
2023-03-03T23:48:27.922Z,100.00
2023-03-03T23:50:54.424Z,100.00
2023-03-03T23:53:21.060Z,100.00
2023-03-03T23:55:47.596Z,100.00
2023-03-03T23:58:14.153Z,100.00
